Time;durP1;ratioP1;P1;durP2;ratioP2;P2;SDS_P1;SDS_P2;PMS_P1;PMS_P2;Temp;Humidity;BMP_temperature;BMP_pressure;BME280_temperature;BME280_humidity;BME280_pressure;Samples;Min_cycle;Max_cycle;Signal;HPM_P1;HPM_P2
2024/03/04 00:01:52;;;;;;;3.15;2.50;;;6.10;60.70;;;;;;4980208;28;20091;-79
2024/03/04 00:04:37;;;;;;;2.85;2.50;;;6.00;60.50;;;;;;4979750;28;20093;-79
2024/03/04 00:07:21;;;;;;;3.13;2.38;;;6.00;60.60;;;;;;4983381;28;20041;-80
2024/03/04 00:10:07;;;;;;;4.45;2.88;;;5.90;60.40;;;;;;4975937;28;20146;-79
2024/03/04 00:12:51;;;;;;;3.40;2.47;;;5.90;60.50;;;;;;4997205;28;20430;-80
2024/03/04 00:15:35;;;;;;;4.18;2.65;;;5.90;60.50;;;;;;4982981;28;20088;-80
2024/03/04 00:18:23;;;;;;;3.03;2.40;;;5.80;60.40;;;;;;4977560;28;20513;-81
2024/03/04 00:21:08;;;;;;;2.85;2.45;;;5.80;60.40;;;;;;4961881;28;20315;-80
2024/03/04 00:23:53;;;;;;;4.13;2.92;;;5.80;60.50;;;;;;4977298;28;20038;-81
2024/03/04 00:26:38;;;;;;;3.30;2.25;;;5.70;60.40;;;;;;4981734;28;20057;-81
2024/03/04 00:29:23;;;;;;;2.90;2.58;;;5.70;60.40;;;;;;4975986;28;20622;-81
2024/03/04 00:32:08;;;;;;;3.05;2.75;;;5.60;60.30;;;;;;4976113;28;20042;-80
2024/03/04 00:34:52;;;;;;;3.95;2.88;;;5.60;60.30;;;;;;4979320;28;20120;-80
2024/03/04 00:37:37;;;;;;;3.30;3.00;;;5.60;60.40;;;;;;4980655;28;20032;-80
2024/03/04 00:40:23;;;;;;;2.80;2.58;;;5.50;60.20;;;;;;4975567;28;20512;-80
2024/03/04 00:43:08;;;;;;;5.05;2.90;;;5.50;60.30;;;;;;4976742;28;20350;-80
2024/03/04 00:45:52;;;;;;;2.35;2.08;;;5.50;60.30;;;;;;4992132;28;20061;-79
2024/03/04 00:48:37;;;;;;;2.40;2.20;;;5.40;60.10;;;;;;4984224;28;20041;-79
2024/03/04 00:51:25;;;;;;;3.10;2.53;;;5.40;60.20;;;;;;4977107;28;20045;-79
2024/03/04 00:54:09;;;;;;;4.03;2.60;;;5.40;60.20;;;;;;4979905;28;20124;-78
2024/03/04 00:56:55;;;;;;;4.13;2.75;;;5.40;60.20;;;;;;4983303;28;20118;-79
2024/03/04 00:59:39;;;;;;;3.63;2.78;;;5.30;60.10;;;;;;4986700;28;20635;-80
2024/03/04 01:02:24;;;;;;;3.97;2.53;;;5.30;60.10;;;;;;4966354;28;20037;-80
2024/03/04 01:05:08;;;;;;;3.47;2.47;;;5.30;60.20;;;;;;4970626;28;20408;-81
2024/03/04 01:07:53;;;;;;;3.15;2.60;;;5.20;60.00;;;;;;4979469;28;20502;-80
2024/03/04 01:10:38;;;;;;;3.22;2.92;;;5.20;60.10;;;;;;4983557;28;20037;-79
2024/03/04 01:13:22;;;;;;;2.90;2.55;;;5.20;60.10;;;;;;4980847;28;20446;-79
2024/03/04 01:16:07;;;;;;;2.65;2.40;;;5.20;60.10;;;;;;4966298;28;20112;-78
2024/03/04 01:18:52;;;;;;;3.40;3.03;;;5.10;60.00;;;;;;4978318;28;20057;-80
2024/03/04 01:21:38;;;;;;;3.50;2.45;;;5.10;60.00;;;;;;4981649;28;20046;-80
2024/03/04 01:24:22;;;;;;;3.05;2.50;;;5.10;60.00;;;;;;4979880;28;20088;-80
2024/03/04 01:27:06;;;;;;;3.05;2.65;;;5.00;59.90;;;;;;4967095;28;20525;-78
2024/03/04 01:29:51;;;;;;;4.32;2.60;;;5.00;59.90;;;;;;4979968;28;20061;-79
2024/03/04 01:32:36;;;;;;;2.97;2.28;;;5.00;60.00;;;;;;4977039;28;20570;-78
2024/03/04 01:35:21;;;;;;;3.20;2.78;;;5.00;60.00;;;;;;4980647;28;20069;-78
2024/03/04 01:38:05;;;;;;;3.45;2.63;;;5.00;60.00;;;;;;4980379;28;20049;-79
2024/03/04 01:40:50;;;;;;;3.33;2.60;;;4.90;59.90;;;;;;4981280;28;20045;-78
2024/03/04 01:43:35;;;;;;;2.70;2.20;;;4.90;59.90;;;;;;4980450;28;20045;-79
2024/03/04 01:46:20;;;;;;;3.72;2.40;;;4.90;59.90;;;;;;4997196;28;20053;-79
2024/03/04 01:49:05;;;;;;;3.30;2.78;;;4.90;59.90;;;;;;4980809;28;20563;-79
2024/03/04 01:51:50;;;;;;;2.90;2.53;;;4.90;59.90;;;;;;4974436;28;20821;-79
2024/03/04 01:54:38;;;;;;;3.78;2.25;;;4.90;59.90;;;;;;4983701;28;20125;-79
2024/03/04 01:57:23;;;;;;;3.67;2.53;;;4.90;59.90;;;;;;4993576;28;20092;-78
2024/03/04 02:00:11;;;;;;;3.72;2.42;;;4.80;59.70;;;;;;4979736;28;20072;-78
2024/03/04 02:02:56;;;;;;;4.93;2.83;;;4.80;59.70;;;;;;4986888;28;20096;-78
2024/03/04 02:05:41;;;;;;;3.47;2.70;;;4.80;59.70;;;;;;4977937;28;20033;-80
2024/03/04 02:08:28;;;;;;;4.47;2.42;;;4.80;59.70;;;;;;4982122;28;20437;-79
2024/03/04 02:11:13;;;;;;;4.85;2.40;;;4.80;59.80;;;;;;4977882;28;20045;-79
2024/03/04 02:13:58;;;;;;;2.65;2.15;;;4.70;59.60;;;;;;4979161;28;20088;-79
2024/03/04 02:16:43;;;;;;;4.38;2.53;;;4.70;59.60;;;;;;4981158;28;20080;-79
2024/03/04 02:19:27;;;;;;;3.47;2.17;;;4.70;59.70;;;;;;4980402;28;20083;-78
2024/03/04 02:22:14;;;;;;;3.30;2.90;;;4.70;59.60;;;;;;4977836;28;20057;-79
2024/03/04 02:24:59;;;;;;;3.85;2.53;;;4.70;59.70;;;;;;4975166;28;20044;-79
2024/03/04 02:27:43;;;;;;;3.97;2.75;;;4.70;59.70;;;;;;4977512;28;20030;-78
2024/03/04 02:30:33;;;;;;;3.90;2.22;;;4.60;59.60;;;;;;4977973;28;20073;-78
2024/03/04 02:33:20;;;;;;;2.78;2.35;;;4.60;59.60;;;;;;4967208;28;20105;-78
2024/03/04 02:36:06;;;;;;;3.22;2.42;;;4.60;59.60;;;;;;4975002;28;20253;-78
2024/03/04 02:38:52;;;;;;;3.03;2.33;;;4.60;59.70;;;;;;4970754;28;20041;-78
2024/03/04 02:41:40;;;;;;;4.57;2.60;;;4.50;59.50;;;;;;4977874;28;20159;-78
2024/03/04 02:44:24;;;;;;;3.05;2.40;;;4.50;59.60;;;;;;4989653;28;20120;-78
2024/03/04 02:47:09;;;;;;;3.92;2.17;;;4.50;59.60;;;;;;4970319;28;20165;-76
2024/03/04 02:49:54;;;;;;;3.40;2.42;;;4.40;59.40;;;;;;4983050;28;20048;-79
2024/03/04 02:52:39;;;;;;;3.15;2.10;;;4.40;59.50;;;;;;4982168;28;20045;-80
2024/03/04 02:55:23;;;;;;;2.75;2.08;;;4.40;59.50;;;;;;4984753;28;20052;-79
2024/03/04 02:58:08;;;;;;;3.72;2.53;;;4.40;59.50;;;;;;4983985;28;20041;-79
2024/03/04 03:00:52;;;;;;;4.03;2.08;;;4.40;59.50;;;;;;4984634;28;20038;-79
2024/03/04 03:03:38;;;;;;;3.50;2.08;;;4.30;59.40;;;;;;4984265;28;20042;-79
2024/03/04 03:06:23;;;;;;;2.67;2.17;;;4.30;59.40;;;;;;4963954;28;20100;-80
2024/03/04 03:09:09;;;;;;;2.65;2.13;;;4.30;59.40;;;;;;4988296;28;20046;-79
2024/03/04 03:11:55;;;;;;;2.88;2.22;;;4.30;59.40;;;;;;4981111;28;20049;-79
2024/03/04 03:14:39;;;;;;;2.50;2.30;;;4.20;59.20;;;;;;4982878;28;20048;-80
2024/03/04 03:17:24;;;;;;;3.80;2.13;;;4.20;59.20;;;;;;4987743;28;20054;-80
2024/03/04 03:20:18;;;;;;;4.25;2.40;;;4.20;59.30;;;;;;4982302;28;20547;-79
2024/03/04 03:23:02;;;;;;;;;;;4.20;59.30;;;;;;4992604;28;20057;-82
2024/03/04 03:25:46;;;;;;;2.67;2.03;;;4.20;59.30;;;;;;4983283;28;20005;-79
2024/03/04 03:28:31;;;;;;;2.53;1.65;;;4.10;59.10;;;;;;4970785;28;20065;-81
2024/03/04 03:31:19;;;;;;;2.40;2.13;;;4.10;59.20;;;;;;4983610;28;20639;-80
2024/03/04 03:34:03;;;;;;;2.40;2.20;;;4.10;59.20;;;;;;4982712;28;20056;-81
2024/03/04 03:36:48;;;;;;;2.40;2.17;;;4.10;59.20;;;;;;4988869;28;20026;-80
2024/03/04 03:39:33;;;;;;;2.28;2.08;;;4.00;59.10;;;;;;4977469;28;20069;-80
2024/03/04 03:42:18;;;;;;;3.08;2.25;;;4.00;59.10;;;;;;4990170;28;20044;-80
2024/03/04 03:45:05;;;;;;;2.58;1.90;;;4.00;59.20;;;;;;4976494;28;20033;-80
2024/03/04 03:47:50;;;;;;;2.40;1.90;;;4.00;59.20;;;;;;5005053;28;20270;-81
2024/03/04 03:50:34;;;;;;;3.25;2.03;;;3.90;59.00;;;;;;4987702;28;20111;-81
2024/03/04 03:53:19;;;;;;;4.15;2.33;;;3.90;59.00;;;;;;4992553;28;20049;-81
2024/03/04 03:56:04;;;;;;;2.90;2.15;;;3.90;59.60;;;;;;4993017;28;20105;-81
2024/03/04 03:58:50;;;;;;;2.60;2.10;;;3.90;59.00;;;;;;4988432;28;20093;-80
2024/03/04 04:01:36;;;;;;;2.30;2.08;;;3.90;59.00;;;;;;4993355;28;20639;-80
2024/03/04 04:04:25;;;;;;;2.58;1.90;;;3.90;59.00;;;;;;4989490;28;20045;-80
2024/03/04 04:07:10;;;;;;;3.58;2.25;;;3.80;58.90;;;;;;4986235;28;20114;-80
2024/03/04 04:09:54;;;;;;;2.55;2.30;;;3.80;58.90;;;;;;4988084;28;20132;-80
2024/03/04 04:12:39;;;;;;;2.40;2.17;;;3.80;58.90;;;;;;4987730;28;20397;-80
2024/03/04 04:15:23;;;;;;;2.53;2.33;;;3.70;58.80;;;;;;4983108;28;20144;-80
2024/03/04 04:18:08;;;;;;;2.40;2.20;;;3.70;58.80;;;;;;4989094;28;20045;-79
2024/03/04 04:20:52;;;;;;;2.92;2.42;;;3.70;58.80;;;;;;4985975;28;20046;-79
2024/03/04 04:23:37;;;;;;;2.47;2.28;;;3.70;58.90;;;;;;4987828;28;20484;-80
2024/03/04 04:26:26;;;;;;;3.00;2.58;;;3.70;58.90;;;;;;4984447;28;20057;-80
2024/03/04 04:29:10;;;;;;;3.10;2.33;;;3.70;58.90;;;;;;4980498;28;20603;-79
2024/03/04 04:31:55;;;;;;;4.10;2.20;;;3.60;58.70;;;;;;4987816;28;20437;-80
2024/03/04 04:34:41;;;;;;;2.28;2.17;;;3.60;58.70;;;;;;4986230;28;20100;-80
2024/03/04 04:37:25;;;;;;;4.10;2.85;;;3.60;58.80;;;;;;4976930;28;20041;-79
2024/03/04 04:40:10;;;;;;;2.72;2.20;;;3.60;58.80;;;;;;4982701;28;20166;-80
2024/03/04 04:42:56;;;;;;;3.15;2.45;;;3.50;58.70;;;;;;4986705;28;20037;-80
2024/03/04 04:45:41;;;;;;;3.80;3.30;;;3.50;58.70;;;;;;4986089;28;20669;-80
2024/03/04 04:48:26;;;;;;;3.20;2.90;;;3.60;58.90;;;;;;4986402;28;20166;-79
2024/03/04 04:51:10;;;;;;;4.20;2.47;;;3.50;58.70;;;;;;4983585;28;20644;-79
2024/03/04 04:53:55;;;;;;;3.17;2.63;;;3.50;58.70;;;;;;4984549;28;20419;-80
2024/03/04 04:56:40;;;;;;;3.58;3.17;;;3.50;58.70;;;;;;4986277;28;20041;-80
2024/03/04 04:59:24;;;;;;;6.10;3.28;;;3.50;58.70;;;;;;4984792;28;20058;-80
2024/03/04 05:02:10;;;;;;;4.40;3.75;;;3.50;58.70;;;;;;4987931;28;20397;-80
2024/03/04 05:04:54;;;;;;;3.05;2.78;;;3.50;58.70;;;;;;4982308;28;20139;-80
2024/03/04 05:07:40;;;;;;;3.53;2.92;;;3.50;58.70;;;;;;4964572;28;20441;-81
2024/03/04 05:10:24;;;;;;;4.22;3.63;;;3.50;58.70;;;;;;5001080;28;20208;-80
2024/03/04 05:13:09;;;;;;;4.03;3.33;;;3.50;58.80;;;;;;4982811;28;20050;-79
2024/03/04 05:15:54;;;;;;;3.80;3.38;;;3.50;58.80;;;;;;4985772;28;20386;-80
2024/03/04 05:18:38;;;;;;;3.85;3.45;;;3.50;58.80;;;;;;4986891;28;20049;-81
2024/03/04 05:21:23;;;;;;;5.15;3.80;;;3.50;58.90;;;;;;4983073;28;20171;-81
2024/03/04 05:24:08;;;;;;;4.97;3.85;;;3.50;58.90;;;;;;4981512;28;20037;-82
2024/03/04 05:26:52;;;;;;;3.72;3.40;;;3.50;58.90;;;;;;4984933;28;20056;-81
2024/03/04 05:29:37;;;;;;;4.43;4.03;;;3.50;58.90;;;;;;4982617;28;20774;-80
2024/03/04 05:32:21;;;;;;;4.28;3.85;;;3.50;58.80;;;;;;4984276;28;20050;-81
2024/03/04 05:35:07;;;;;;;5.03;4.40;;;3.60;59.00;;;;;;4981213;28;20041;-81
2024/03/04 05:37:51;;;;;;;5.07;4.22;;;3.60;59.00;;;;;;4974793;28;20733;-81
2024/03/04 05:40:37;;;;;;;4.53;4.13;;;3.60;59.10;;;;;;4972321;28;20041;-79
2024/03/04 05:43:21;;;;;;;4.88;4.05;;;3.60;59.10;;;;;;4987412;28;20543;-80
2024/03/04 05:46:06;;;;;;;4.68;3.95;;;3.60;59.10;;;;;;4987845;28;20081;-81
2024/03/04 05:48:51;;;;;;;5.63;4.25;;;3.70;59.20;;;;;;4977977;28;20385;-79
2024/03/04 05:51:41;;;;;;;4.90;4.50;;;3.70;59.20;;;;;;4977480;28;20049;-81
2024/03/04 05:54:26;;;;;;;5.32;4.40;;;3.70;59.20;;;;;;4975064;28;20081;-81
2024/03/04 05:57:10;;;;;;;5.18;4.53;;;3.70;59.20;;;;;;4949509;28;20042;-82
2024/03/04 05:59:54;;;;;;;5.85;5.00;;;3.70;59.20;;;;;;4968975;28;20048;-82
2024/03/04 06:02:43;;;;;;;5.93;4.85;;;3.80;59.40;;;;;;4967375;28;20077;-81
2024/03/04 06:05:27;;;;;;;5.18;4.40;;;3.80;59.40;;;;;;4967001;28;20041;-82
2024/03/04 06:08:15;;;;;;;4.93;4.35;;;3.80;59.40;;;;;;4964214;28;20638;-81
2024/03/04 06:10:59;;;;;;;5.68;5.03;;;3.80;59.40;;;;;;4965766;28;20118;-81
2024/03/04 06:13:44;;;;;;;5.57;4.93;;;3.90;59.50;;;;;;4968918;28;20140;-81
2024/03/04 06:16:29;;;;;;;6.03;4.38;;;3.80;59.40;;;;;;4967487;28;20046;-81
2024/03/04 06:19:13;;;;;;;5.88;4.95;;;3.90;59.50;;;;;;4985991;28;20085;-81
2024/03/04 06:21:58;;;;;;;6.35;5.20;;;3.90;59.50;;;;;;4980011;28;20041;-78
2024/03/04 06:24:43;;;;;;;5.22;4.70;;;3.90;59.50;;;;;;4971631;28;20344;-81
2024/03/04 06:27:28;;;;;;;6.00;5.40;;;3.90;59.50;;;;;;4974039;28;20040;-81
2024/03/04 06:30:13;;;;;;;5.35;4.50;;;3.90;59.50;;;;;;4968376;28;20053;-82
2024/03/04 06:32:57;;;;;;;5.72;5.13;;;3.90;59.50;;;;;;4985388;28;20058;-80
2024/03/04 06:35:43;;;;;;;5.63;5.07;;;3.90;59.50;;;;;;4972755;28;20041;-78
2024/03/04 06:38:27;;;;;;;7.90;4.85;;;4.00;59.70;;;;;;4976379;28;20101;-81
2024/03/04 06:41:12;;;;;;;6.28;5.68;;;4.00;59.70;;;;;;4979228;28;20224;-80
2024/03/04 06:43:57;;;;;;;5.38;4.88;;;3.90;59.50;;;;;;4974001;28;20049;-79
2024/03/04 06:46:42;;;;;;;5.35;4.85;;;4.00;59.70;;;;;;4987697;28;20048;-83
2024/03/04 06:49:27;;;;;;;5.90;3.83;;;4.00;59.70;;;;;;4970340;28;20543;-81
2024/03/04 06:52:11;;;;;;;9.38;4.60;;;4.00;59.80;;;;;;4967530;28;20120;-81
2024/03/04 06:54:56;;;;;;;7.22;4.55;;;4.10;60.20;;;;;;4976266;28;20073;-79
2024/03/04 06:57:41;;;;;;;7.75;4.95;;;4.20;60.50;;;;;;4971718;28;20145;-78
2024/03/04 07:00:25;;;;;;;5.25;4.60;;;4.30;60.70;;;;;;4972094;28;20045;-77
2024/03/04 07:03:09;;;;;;;5.43;4.93;;;4.50;61.10;;;;;;4973306;28;20045;-77
2024/03/04 07:05:54;;;;;;;9.18;5.90;;;4.50;61.10;;;;;;4977899;28;20045;-77
2024/03/04 07:08:41;;;;;;;20.05;7.20;;;4.60;61.40;;;;;;4979381;28;20134;-77
2024/03/04 07:11:25;;;;;;;13.65;7.28;;;4.60;61.60;;;;;;4979549;28;20107;-78
2024/03/04 07:14:10;;;;;;;16.67;9.25;;;4.70;62.10;;;;;;4980527;28;20112;-78
2024/03/04 07:16:54;;;;;;;11.55;6.30;;;4.80;62.30;;;;;;4966720;28;20053;-78
2024/03/04 07:19:39;;;;;;;11.55;6.55;;;4.90;62.50;;;;;;4976612;28;20073;-78
2024/03/04 07:22:23;;;;;;;10.65;6.55;;;4.90;62.60;;;;;;4987107;28;20573;-78
2024/03/04 07:25:08;;;;;;;13.82;7.10;;;5.00;62.90;;;;;;4974671;28;20520;-78
2024/03/04 07:27:53;;;;;;;8.55;6.22;;;5.00;63.10;;;;;;4965674;28;20110;-78
2024/03/04 07:30:38;;;;;;;9.60;5.68;;;5.00;63.30;;;;;;4976756;28;20065;-78
2024/03/04 07:33:23;;;;;;;18.02;7.28;;;5.00;63.40;;;;;;4970815;28;20181;-77
2024/03/04 07:36:10;;;;;;;9.35;5.97;;;5.10;63.70;;;;;;4971367;28;20042;-79
2024/03/04 07:38:54;;;;;;;10.30;5.80;;;5.10;63.70;;;;;;4977747;28;20081;-79
2024/03/04 07:41:39;;;;;;;8.82;5.80;;;5.20;63.90;;;;;;4979499;28;20037;-81
2024/03/04 07:44:24;;;;;;;7.07;5.13;;;5.20;63.90;;;;;;4974768;28;20089;-79
2024/03/04 07:47:08;;;;;;;6.72;5.30;;;5.20;63.90;;;;;;4979076;28;20441;-79
2024/03/04 07:49:52;;;;;;;5.60;5.05;;;5.30;64.10;;;;;;4976537;28;20077;-79
2024/03/04 07:52:38;;;;;;;6.25;5.25;;;5.40;64.20;;;;;;4954911;28;20062;-79
2024/03/04 07:55:23;;;;;;;7.70;4.90;;;5.40;64.10;;;;;;4968386;28;20058;-78
2024/03/04 07:58:07;;;;;;;5.78;4.47;;;5.50;64.20;;;;;;4982637;28;20085;-80
2024/03/04 08:00:51;;;;;;;4.95;4.43;;;5.60;64.30;;;;;;4980758;28;20449;-79
2024/03/04 08:03:36;;;;;;;6.55;4.60;;;5.60;64.30;;;;;;4976612;28;20134;-79
2024/03/04 08:06:21;;;;;;;6.72;4.50;;;5.70;64.40;;;;;;4990548;28;20647;-79
2024/03/04 08:09:05;;;;;;;5.60;4.47;;;5.80;64.40;;;;;;4973371;28;20085;-79
2024/03/04 08:11:50;;;;;;;6.20;3.95;;;5.80;64.30;;;;;;4976039;28;20084;-79
2024/03/04 08:14:36;;;;;;;6.32;4.15;;;5.90;64.40;;;;;;4969335;28;20045;-80
2024/03/04 08:17:20;;;;;;;4.63;4.20;;;6.00;64.50;;;;;;4986380;28;20315;-79
2024/03/04 08:20:06;;;;;;;4.40;3.80;;;6.10;64.60;;;;;;4978098;28;20045;-80
2024/03/04 08:22:50;;;;;;;6.53;3.80;;;6.20;64.60;;;;;;4961909;28;20061;-80
2024/03/04 08:25:34;;;;;;;4.95;3.78;;;6.20;64.50;;;;;;4965219;28;20421;-79
2024/03/04 08:28:19;;;;;;;5.55;3.85;;;6.30;64.60;;;;;;4971606;28;20057;-79
2024/03/04 08:31:04;;;;;;;5.40;4.18;;;6.50;64.80;;;;;;4984780;28;20089;-79
2024/03/04 08:33:51;;;;;;;3.95;3.55;;;6.50;64.70;;;;;;4964904;28;20553;-78
2024/03/04 08:36:36;;;;;;;7.13;3.67;;;6.60;64.70;;;;;;4978793;28;20155;-77
2024/03/04 08:39:20;;;;;;;4.15;3.58;;;6.80;64.90;;;;;;4970536;28;20050;-78
2024/03/04 08:42:05;;;;;;;4.55;3.65;;;6.80;64.80;;;;;;4971895;28;20088;-78
2024/03/04 08:44:50;;;;;;;4.05;3.58;;;6.90;64.80;;;;;;4964820;28;20493;-78
2024/03/04 08:47:35;;;;;;;4.68;3.65;;;6.90;64.80;;;;;;4971411;28;20589;-78
2024/03/04 08:50:20;;;;;;;4.10;3.70;;;7.00;64.90;;;;;;4968089;28;20061;-78
2024/03/04 08:53:04;;;;;;;4.35;3.60;;;7.00;64.80;;;;;;4966288;28;20097;-81
2024/03/04 08:55:50;;;;;;;3.83;3.42;;;7.10;64.90;;;;;;4961663;28;20058;-78
2024/03/04 08:58:35;;;;;;;3.83;3.42;;;7.20;65.00;;;;;;4971093;28;20038;-78
2024/03/04 09:01:20;;;;;;;4.10;3.70;;;7.30;65.00;;;;;;4975611;28;20053;-81
2024/03/04 09:04:05;;;;;;;3.83;3.38;;;7.40;65.10;;;;;;4974930;28;20642;-78
2024/03/04 09:06:49;;;;;;;3.88;3.47;;;7.50;65.10;;;;;;4965674;28;20046;-78
2024/03/04 09:09:35;;;;;;;4.55;3.55;;;7.60;65.10;;;;;;4973906;28;20452;-78
2024/03/04 09:12:21;;;;;;;3.15;2.85;;;7.70;65.10;;;;;;4978958;28;20069;-77
2024/03/04 09:15:09;;;;;;;6.15;3.38;;;7.80;65.10;;;;;;4975003;28;20045;-78
2024/03/04 09:17:54;;;;;;;4.47;4.07;;;8.00;65.20;;;;;;4969018;28;20077;-80
2024/03/04 09:20:38;;;;;;;4.03;3.63;;;8.00;65.10;;;;;;4979078;28;20650;-80
2024/03/04 09:23:24;;;;;;;3.67;3.38;;;8.20;65.20;;;;;;4962841;28;20046;-78
2024/03/04 09:26:09;;;;;;;3.83;3.38;;;8.30;65.20;;;;;;4965571;28;20045;-81
2024/03/04 09:28:54;;;;;;;4.53;3.83;;;8.40;65.20;;;;;;4981706;28;20029;-81
2024/03/04 09:31:44;;;;;;;3.65;3.35;;;8.50;65.20;;;;;;4976872;28;20085;-81
2024/03/04 09:34:28;;;;;;;4.60;3.50;;;8.60;65.20;;;;;;4972524;28;20128;-79
2024/03/04 09:37:12;;;;;;;3.45;3.15;;;8.70;65.10;;;;;;4979408;28;20163;-79
2024/03/04 09:39:57;;;;;;;4.68;3.13;;;8.90;65.30;;;;;;4971306;28;20251;-78
2024/03/04 09:42:49;;;;;;;3.45;3.15;;;9.00;65.20;;;;;;4969503;28;20049;-79
2024/03/04 09:45:34;;;;;;;4.30;3.60;;;9.10;65.20;;;;;;4972820;28;20041;-79
2024/03/04 09:48:22;;;;;;;6.47;3.53;;;9.20;65.20;;;;;;4964682;28;20575;-79
2024/03/04 09:51:08;;;;;;;3.60;3.30;;;9.30;65.10;;;;;;4973959;28;20045;-79
2024/03/04 09:53:53;;;;;;;3.95;3.17;;;9.40;65.10;;;;;;4972119;28;20104;-78
2024/03/04 09:56:38;;;;;;;3.35;2.90;;;9.50;65.10;;;;;;4973704;28;20061;-80
2024/03/04 09:59:24;;;;;;;3.47;3.17;;;9.70;65.20;;;;;;4974604;28;20069;-79
2024/03/04 10:02:11;;;;;;;4.45;3.33;;;9.80;65.20;;;;;;4974552;28;20049;-80
2024/03/04 10:04:56;;;;;;;5.15;3.05;;;9.90;65.10;;;;;;4969325;28;20037;-79
2024/03/04 10:07:41;;;;;;;3.20;2.92;;;10.10;65.30;;;;;;4975422;28;20120;-80
2024/03/04 10:10:26;;;;;;;4.50;4.00;;;10.10;65.10;;;;;;4973392;28;20053;-78
2024/03/04 10:13:10;;;;;;;4.78;3.28;;;10.30;65.30;;;;;;4971452;28;20053;-79
2024/03/04 10:15:55;;;;;;;4.40;3.20;;;10.30;65.10;;;;;;4982577;28;20117;-78
2024/03/04 10:18:39;;;;;;;3.30;2.80;;;10.50;65.30;;;;;;4975907;28;20444;-77
2024/03/04 10:21:26;;;;;;;3.65;2.70;;;10.60;65.20;;;;;;4968407;28;20065;-79
2024/03/04 10:24:11;;;;;;;4.93;3.20;;;10.70;65.20;;;;;;4957462;28;20086;-77
2024/03/04 10:26:55;;;;;;;5.13;2.80;;;10.80;65.30;;;;;;4988115;28;20049;-79
2024/03/04 10:29:39;;;;;;;3.67;2.53;;;10.90;65.20;;;;;;4968214;28;20481;-79
2024/03/04 10:32:25;;;;;;;5.18;2.30;;;11.00;65.20;;;;;;4965875;28;20319;-79
2024/03/04 10:35:09;;;;;;;5.22;2.30;;;11.00;65.10;;;;;;4988542;28;20076;-79
2024/03/04 10:37:59;;;;;;;4.72;2.63;;;11.10;65.10;;;;;;4971875;28;20164;-76
2024/03/04 10:40:46;;;;;;;4.80;2.63;;;11.10;65.00;;;;;;4973341;28;20069;-80
2024/03/04 10:43:32;;;;;;;4.72;2.40;;;11.20;65.10;;;;;;4986736;28;20536;-79
2024/03/04 10:46:17;;;;;;;2.80;2.28;;;11.20;65.10;;;;;;4978183;28;20446;-78
2024/03/04 10:49:02;;;;;;;5.35;2.30;;;11.30;65.20;;;;;;4971237;28;20232;-78
2024/03/04 10:51:47;;;;;;;4.13;2.13;;;11.40;65.20;;;;;;4950897;28;20109;-77
2024/03/04 10:54:34;;;;;;;3.95;2.38;;;11.50;65.10;;;;;;4973193;28;20418;-77
2024/03/04 10:57:28;;;;;;;5.07;2.40;;;11.60;65.00;;;;;;4963686;28;20123;-80
2024/03/04 11:00:17;;;;;;;3.50;1.90;;;11.70;64.90;;;;;;4974346;28;20068;-80
2024/03/04 11:03:02;;;;;;;2.47;1.63;;;11.80;64.90;;;;;;4967178;28;20528;-80
2024/03/04 11:05:52;;;;;;;4.40;2.20;;;11.90;64.80;;;;;;4971606;28;20324;-79
2024/03/04 11:08:41;;;;;;;4.97;1.80;;;12.10;64.90;;;;;;4965490;28;20090;-80
2024/03/04 11:11:35;;;;;;;6.55;2.08;;;12.10;64.70;;;;;;4973245;28;20501;-78
2024/03/04 11:14:29;;;;;;;3.33;1.83;;;12.20;64.60;;;;;;4979963;28;20117;-78
2024/03/04 11:17:22;;;;;;;3.90;1.88;;;12.30;64.60;;;;;;4972466;28;20347;-77
2024/03/04 11:20:07;;;;;;;2.05;1.80;;;12.40;64.50;;;;;;4971816;28;20042;-77
2024/03/04 11:22:53;;;;;;;3.25;1.70;;;12.50;64.50;;;;;;4959582;28;20042;-77
2024/03/04 11:25:38;;;;;;;3.42;1.50;;;12.60;64.40;;;;;;4987674;28;20417;-77
2024/03/04 11:28:24;;;;;;;4.80;1.77;;;12.80;64.50;;;;;;4977957;28;20045;-77
2024/03/04 11:31:24;;;;;;;2.58;1.40;;;12.90;64.40;;;;;;4972169;28;20053;-77
2024/03/04 11:34:08;;;;;;;4.70;2.08;;;13.00;64.20;;;;;;4962825;28;20049;-77
2024/03/04 11:36:57;;;;;;;4.68;1.67;;;13.10;64.20;;;;;;4974450;28;20040;-77
2024/03/04 11:39:42;;;;;;;2.20;1.40;;;13.20;64.20;;;;;;4989611;28;20405;-78
2024/03/04 11:42:38;;;;;;;3.03;1.30;;;13.30;64.10;;;;;;4965390;28;20050;-77
2024/03/04 11:45:33;;;;;;;3.45;2.13;;;13.30;63.90;;;;;;4963785;28;20084;-78
2024/03/04 11:48:27;;;;;;;3.67;1.65;;;13.40;63.90;;;;;;4963008;28;20065;-78
2024/03/04 11:51:12;;;;;;;4.78;1.50;;;13.40;63.80;;;;;;4974907;28;20096;-78
2024/03/04 11:53:57;;;;;;;2.17;1.40;;;13.50;63.90;;;;;;4976093;28;20057;-78
2024/03/04 11:56:42;;;;;;;4.35;1.10;;;13.50;63.80;;;;;;4979401;28;20045;-78
2024/03/04 11:59:27;;;;;;;2.28;1.33;;;13.50;63.60;;;;;;4980303;28;20225;-78
2024/03/04 12:02:12;;;;;;;4.60;1.60;;;13.60;63.70;;;;;;4979078;28;20081;-77
2024/03/04 12:04:58;;;;;;;4.93;1.17;;;13.70;63.60;;;;;;4970265;28;20116;-78
2024/03/04 12:07:43;;;;;;;3.80;1.33;;;13.70;63.50;;;;;;4977626;28;20073;-78
2024/03/04 12:10:29;;;;;;;3.42;1.10;;;13.80;63.50;;;;;;4981315;28;20299;-78
2024/03/04 12:13:13;;;;;;;2.83;1.02;;;13.90;63.50;;;;;;4970049;28;20048;-78
2024/03/04 12:15:58;;;;;;;2.67;0.98;;;14.00;63.50;;;;;;4976372;28;20057;-78
2024/03/04 12:18:43;;;;;;;3.92;1.23;;;14.10;63.40;;;;;;4974579;28;20606;-78
2024/03/04 12:21:28;;;;;;;3.35;0.98;;;14.10;63.20;;;;;;4968796;28;20054;-78
2024/03/04 12:24:16;;;;;;;3.45;1.00;;;14.20;63.20;;;;;;4966868;28;20084;-79
2024/03/04 12:27:00;;;;;;;2.28;0.98;;;14.20;63.00;;;;;;4960106;28;20049;-78
2024/03/04 12:29:46;;;;;;;2.58;1.00;;;14.30;63.00;;;;;;4977140;28;20072;-79
2024/03/04 12:32:34;;;;;;;2.38;1.00;;;14.40;63.00;;;;;;4974785;28;20065;-79
2024/03/04 12:35:28;;;;;;;4.63;1.25;;;14.40;62.80;;;;;;4988911;28;20523;-78
2024/03/04 12:38:15;;;;;;;3.15;0.88;;;14.50;62.80;;;;;;4974889;28;20046;-80
2024/03/04 12:40:59;;;;;;;2.70;1.00;;;14.60;62.80;;;;;;4966174;28;20057;-79
2024/03/04 12:43:48;;;;;;;1.90;0.90;;;14.60;62.60;;;;;;4977428;28;20057;-79
2024/03/04 12:46:37;;;;;;;3.28;0.80;;;14.70;62.60;;;;;;4971520;28;20169;-79
2024/03/04 12:49:22;;;;;;;2.38;1.15;;;14.80;62.60;;;;;;4976847;28;20184;-80
2024/03/04 12:52:08;;;;;;;1.38;0.77;;;14.80;62.40;;;;;;4968304;28;20639;-79
2024/03/04 12:54:53;;;;;;;0.93;0.77;;;14.90;62.40;;;;;;4969386;28;20056;-79
2024/03/04 12:57:37;;;;;;;3.17;1.00;;;14.90;62.30;;;;;;4970720;28;20267;-79
2024/03/04 13:00:22;;;;;;;1.60;0.80;;;14.90;62.10;;;;;;4975910;28;20683;-79
2024/03/04 13:03:06;;;;;;;2.60;0.82;;;15.00;62.20;;;;;;4979018;28;20049;-79
2024/03/04 13:05:51;;;;;;;1.27;0.82;;;15.00;62.10;;;;;;4977029;28;20041;-79
2024/03/04 13:08:36;;;;;;;2.83;1.02;;;14.90;61.90;;;;;;4970570;28;20054;-78
2024/03/04 13:11:22;;;;;;;3.05;1.45;;;14.90;61.90;;;;;;4978210;28;20573;-79
2024/03/04 13:14:06;;;;;;;2.50;0.80;;;14.90;61.90;;;;;;4974769;28;20614;-79
2024/03/04 13:16:51;;;;;;;2.65;0.80;;;14.90;61.90;;;;;;4976406;28;20045;-82
2024/03/04 13:19:38;;;;;;;2.08;0.68;;;14.80;61.60;;;;;;4978651;28;20469;-79
2024/03/04 13:22:23;;;;;;;2.88;0.60;;;14.90;61.70;;;;;;4971803;28;20049;-79
2024/03/04 13:25:08;;;;;;;2.17;0.65;;;14.80;61.50;;;;;;4983116;28;20038;-78
2024/03/04 13:27:53;;;;;;;3.22;1.00;;;14.80;61.50;;;;;;4973962;28;20061;-78
2024/03/04 13:30:37;;;;;;;2.05;0.68;;;14.80;61.40;;;;;;4971875;28;20505;-78
2024/03/04 13:33:22;;;;;;;1.17;0.55;;;14.80;61.40;;;;;;4969283;28;20540;-77
2024/03/04 13:36:07;;;;;;;3.45;0.95;;;14.70;61.20;;;;;;4976328;28;20599;-78
2024/03/04 13:38:53;;;;;;;3.10;1.00;;;14.70;61.20;;;;;;4982296;28;20484;-77
2024/03/04 13:41:38;;;;;;;2.28;0.75;;;14.60;61.00;;;;;;4974260;28;20092;-77
2024/03/04 13:44:22;;;;;;;3.75;0.77;;;14.60;61.10;;;;;;4988351;28;20513;-78
2024/03/04 13:47:06;;;;;;;2.78;1.13;;;14.60;61.10;;;;;;4985261;28;20116;-78
2024/03/04 13:49:50;;;;;;;2.35;0.60;;;14.50;60.90;;;;;;4975002;28;20042;-78
2024/03/04 13:52:35;;;;;;;2.88;0.77;;;14.50;60.90;;;;;;4979661;28;20042;-78
2024/03/04 13:55:20;;;;;;;2.17;0.60;;;14.50;60.90;;;;;;4967552;28;20595;-78
2024/03/04 13:58:04;;;;;;;3.33;1.13;;;14.40;60.80;;;;;;4981193;28;20068;-78
2024/03/04 14:00:49;;;;;;;2.00;0.65;;;14.40;60.80;;;;;;4970436;28;20393;-78
2024/03/04 14:03:34;;;;;;;1.45;0.82;;;14.40;60.70;;;;;;4967469;28;20049;-78
2024/03/04 14:06:18;;;;;;;1.38;0.60;;;14.30;60.60;;;;;;4973695;28;20276;-78
2024/03/04 14:09:03;;;;;;;2.03;1.48;;;14.30;60.50;;;;;;4975933;28;20052;-78
2024/03/04 14:11:49;;;;;;;1.13;0.75;;;14.30;60.50;;;;;;4964725;28;20130;-78
2024/03/04 14:14:33;;;;;;;3.55;1.00;;;14.30;60.50;;;;;;4958893;28;20121;-78
2024/03/04 14:17:17;;;;;;;2.47;0.73;;;14.30;60.40;;;;;;4975879;28;20120;-79
2024/03/04 14:20:05;;;;;;;1.70;0.80;;;14.30;60.40;;;;;;4969432;28;20045;-80
2024/03/04 14:22:49;;;;;;;2.60;0.82;;;14.30;60.40;;;;;;4960420;28;20442;-79
2024/03/04 14:25:34;;;;;;;1.15;0.60;;;14.20;60.20;;;;;;4968900;28;20518;-81
2024/03/04 14:28:18;;;;;;;2.55;0.73;;;14.20;60.20;;;;;;4974371;28;20057;-80